Time;durP1;ratioP1;P1;durP2;ratioP2;P2;SDS_P1;SDS_P2;PMS_P1;PMS_P2;Temp;Humidity;BMP_temperature;BMP_pressure;BME280_temperature;BME280_humidity;BME280_pressure;Samples;Min_cycle;Max_cycle;Signal;HPM_P1;HPM_P2
2024/02/20 00:01:09;;;;;;;1.57;1.47;;;8.20;99.90;;;;;;5074304;28;20272;-58
2024/02/20 00:03:35;;;;;;;1.27;1.20;;;8.20;99.90;;;;;;5074404;28;20166;-58
2024/02/20 00:06:00;;;;;;;1.23;1.13;;;8.10;99.90;;;;;;5074290;28;20208;-56
2024/02/20 00:08:26;;;;;;;2.90;1.73;;;8.20;99.90;;;;;;5073882;28;20164;-56
2024/02/20 00:10:51;;;;;;;2.93;1.20;;;8.20;99.90;;;;;;5074163;28;20675;-57
2024/02/20 00:13:17;;;;;;;1.63;1.40;;;8.10;99.90;;;;;;5074212;28;20169;-58
2024/02/20 00:15:43;;;;;;;1.47;1.30;;;8.00;99.90;;;;;;5073942;28;20518;-57
2024/02/20 00:18:10;;;;;;;1.93;1.03;;;7.90;99.90;;;;;;5073845;28;20490;-56
2024/02/20 00:20:35;;;;;;;1.98;1.30;;;7.80;99.90;;;;;;5073988;28;20408;-57
2024/02/20 00:23:01;;;;;;;1.10;1.00;;;7.70;99.90;;;;;;5073854;28;20169;-57
2024/02/20 00:25:26;;;;;;;1.33;1.00;;;7.80;99.90;;;;;;5074000;28;20643;-57
2024/02/20 00:27:52;;;;;;;0.87;0.87;;;7.90;99.90;;;;;;5073583;28;20219;-58
2024/02/20 00:30:18;;;;;;;1.53;1.43;;;7.70;99.90;;;;;;5073798;28;20189;-53
2024/02/20 00:32:43;;;;;;;1.10;1.00;;;7.80;99.90;;;;;;5073061;28;20248;-58
2024/02/20 00:35:09;;;;;;;1.70;1.33;;;7.70;99.90;;;;;;5073740;28;20647;-58
2024/02/20 00:37:35;;;;;;;1.03;1.00;;;7.70;99.90;;;;;;5073313;28;20194;-58
2024/02/20 00:40:00;;;;;;;1.10;0.90;;;7.50;99.90;;;;;;5073361;28;20213;-57
2024/02/20 00:42:26;;;;;;;1.47;1.20;;;7.70;99.90;;;;;;5073598;28;20201;-55
2024/02/20 00:44:52;;;;;;;2.23;1.40;;;7.80;99.90;;;;;;5073673;28;20169;-55
2024/02/20 00:47:17;;;;;;;2.90;1.70;;;7.90;99.90;;;;;;5073267;28;20166;-57
2024/02/20 00:49:43;;;;;;;1.20;1.10;;;7.80;99.90;;;;;;5073666;28;20238;-57
2024/02/20 00:52:09;;;;;;;3.37;1.47;;;7.80;99.90;;;;;;5073481;28;20165;-56
2024/02/20 00:54:40;;;;;;;1.30;1.30;;;7.80;99.90;;;;;;5073636;28;20176;-57
2024/02/20 00:57:06;;;;;;;1.30;1.20;;;7.90;99.90;;;;;;5073253;28;20566;-57
2024/02/20 00:59:31;;;;;;;1.20;1.20;;;7.80;99.90;;;;;;5073147;28;20208;-57
2024/02/20 01:01:57;;;;;;;1.00;1.00;;;7.80;99.90;;;;;;5073212;28;20208;-56
2024/02/20 01:04:24;;;;;;;1.90;1.67;;;7.80;99.90;;;;;;5073225;28;20188;-56
2024/02/20 01:06:49;;;;;;;1.58;1.38;;;7.80;99.90;;;;;;5072778;28;20666;-55
2024/02/20 01:09:15;;;;;;;1.90;1.20;;;7.80;99.90;;;;;;5073004;28;20197;-54
2024/02/20 01:11:41;;;;;;;1.90;1.43;;;7.70;99.90;;;;;;5073012;28;20182;-56
2024/02/20 01:14:07;;;;;;;1.33;1.25;;;7.60;99.90;;;;;;5073012;28;20166;-56
2024/02/20 01:16:33;;;;;;;2.80;1.40;;;7.50;99.90;;;;;;5072776;28;20177;-59
2024/02/20 01:18:58;;;;;;;1.10;1.10;;;7.60;99.90;;;;;;5072639;28;20532;-58
2024/02/20 01:21:24;;;;;;;2.70;1.77;;;7.60;99.90;;;;;;5072773;28;20232;-58
2024/02/20 01:23:50;;;;;;;2.10;1.60;;;7.70;99.90;;;;;;5072843;28;20316;-54
2024/02/20 01:26:15;;;;;;;1.70;1.60;;;7.80;99.90;;;;;;5072976;28;20174;-57
2024/02/20 01:28:41;;;;;;;1.70;1.60;;;7.70;99.90;;;;;;5072357;28;20624;-56
2024/02/20 01:31:08;;;;;;;1.73;1.25;;;7.70;99.90;;;;;;5072877;28;20177;-57
2024/02/20 01:33:34;;;;;;;1.40;1.30;;;7.70;99.90;;;;;;5072739;28;20173;-57
2024/02/20 01:35:59;;;;;;;1.93;1.83;;;7.70;99.90;;;;;;5072476;28;20663;-58
2024/02/20 01:38:25;;;;;;;1.30;1.20;;;7.70;99.90;;;;;;5071974;28;20540;-58
2024/02/20 01:40:51;;;;;;;2.03;1.93;;;7.80;99.90;;;;;;5072935;28;20194;-56
2024/02/20 01:43:16;;;;;;;1.70;1.60;;;7.70;99.90;;;;;;5072057;28;20262;-58
2024/02/20 01:45:42;;;;;;;2.30;1.27;;;7.60;99.90;;;;;;5073033;28;20561;-58
2024/02/20 01:48:08;;;;;;;1.80;1.70;;;7.70;99.90;;;;;;5072202;28;20628;-57
2024/02/20 01:50:36;;;;;;;1.50;1.40;;;7.70;99.90;;;;;;5072774;28;20180;-57
2024/02/20 01:53:02;;;;;;;1.42;1.23;;;7.70;99.90;;;;;;5072294;28;20257;-57
2024/02/20 01:55:28;;;;;;;1.50;1.40;;;7.70;99.90;;;;;;5072183;28;20208;-58
2024/02/20 01:57:54;;;;;;;1.25;1.15;;;7.70;99.90;;;;;;5071818;28;20170;-56
2024/02/20 02:00:22;;;;;;;1.67;1.58;;;7.50;99.90;;;;;;5072116;28;20677;-58
2024/02/20 02:02:48;;;;;;;1.35;1.25;;;7.50;99.90;;;;;;5053992;28;20682;-58
2024/02/20 02:05:14;;;;;;;0.90;0.90;;;7.50;99.90;;;;;;5071803;28;20175;-58
2024/02/20 02:07:39;;;;;;;1.07;0.93;;;7.50;99.90;;;;;;5071789;28;20169;-58
2024/02/20 02:10:06;;;;;;;7.80;1.87;;;7.50;99.90;;;;;;5071854;28;20439;-58
2024/02/20 02:12:31;;;;;;;1.10;1.00;;;7.50;99.90;;;;;;5071718;28;20230;-58
2024/02/20 02:14:57;;;;;;;1.40;1.30;;;7.40;99.90;;;;;;5071857;28;20560;-58
2024/02/20 02:17:23;;;;;;;1.67;1.00;;;7.20;99.90;;;;;;5071564;28;20229;-58
2024/02/20 02:19:48;;;;;;;1.40;1.00;;;7.10;99.90;;;;;;5071613;28;20193;-58
2024/02/20 02:22:14;;;;;;;2.93;1.20;;;7.10;99.90;;;;;;5071720;28;20201;-58
2024/02/20 02:24:41;;;;;;;1.40;1.00;;;7.20;99.90;;;;;;5071708;28;20215;-58
2024/02/20 02:27:07;;;;;;;1.63;1.25;;;7.30;99.90;;;;;;5071821;28;20173;-59
2024/02/20 02:29:32;;;;;;;1.10;0.93;;;7.30;99.90;;;;;;5071541;28;20544;-58
2024/02/20 02:31:59;;;;;;;1.40;1.30;;;7.40;99.90;;;;;;5071787;28;20659;-59
2024/02/20 02:34:29;;;;;;;0.85;0.70;;;7.50;99.90;;;;;;5072195;28;20161;-57
2024/02/20 02:36:55;;;;;;;1.83;1.30;;;7.50;99.90;;;;;;5071643;28;20169;-58
2024/02/20 02:39:22;;;;;;;0.90;0.90;;;7.40;99.90;;;;;;5071361;28;20362;-56
2024/02/20 02:41:48;;;;;;;0.77;0.70;;;7.30;99.90;;;;;;5071434;28;20205;-58
2024/02/20 02:44:14;;;;;;;1.15;0.93;;;7.40;99.90;;;;;;5071430;28;20174;-58
2024/02/20 02:46:40;;;;;;;1.10;0.98;;;7.40;99.90;;;;;;5071438;28;20169;-58
2024/02/20 02:49:07;;;;;;;2.03;0.90;;;7.60;99.90;;;;;;5070916;28;20199;-58
2024/02/20 02:51:33;;;;;;;1.40;0.88;;;7.60;99.90;;;;;;5071565;28;20241;-58
2024/02/20 02:53:59;;;;;;;0.60;0.60;;;7.60;99.90;;;;;;5071248;28;20180;-58
2024/02/20 02:56:25;;;;;;;0.70;0.57;;;7.50;99.90;;;;;;5070980;28;20172;-58
2024/02/20 02:58:50;;;;;;;1.10;0.70;;;7.50;99.90;;;;;;5071214;28;20246;-58
2024/02/20 03:01:16;;;;;;;0.53;0.53;;;7.50;99.90;;;;;;5071012;28;20692;-58
2024/02/20 03:03:42;;;;;;;0.60;0.60;;;7.40;99.90;;;;;;5071507;28;20175;-58
2024/02/20 03:06:08;;;;;;;0.50;0.50;;;7.40;99.90;;;;;;5071305;28;20407;-58
2024/02/20 03:08:37;;;;;;;0.40;0.40;;;7.30;99.90;;;;;;5070910;28;20195;-56
2024/02/20 03:11:05;;;;;;;0.30;0.30;;;7.40;99.90;;;;;;5071376;28;20317;-58
2024/02/20 03:13:33;;;;;;;0.40;0.40;;;7.30;99.90;;;;;;5071258;28;20229;-58
2024/02/20 03:16:00;;;;;;;0.40;0.40;;;7.20;99.90;;;;;;5071137;28;20180;-58
2024/02/20 03:18:26;;;;;;;0.50;0.50;;;7.20;99.90;;;;;;5070883;28;20544;-58
2024/02/20 03:20:52;;;;;;;0.93;0.50;;;7.20;99.90;;;;;;5071122;28;20294;-58
2024/02/20 03:23:18;;;;;;;0.50;0.43;;;7.10;99.90;;;;;;5071350;28;20690;-58
2024/02/20 03:25:44;;;;;;;0.60;0.50;;;7.10;99.90;;;;;;5071027;28;20229;-58
2024/02/20 03:28:09;;;;;;;1.23;0.57;;;7.10;99.90;;;;;;5070686;28;20172;-58
2024/02/20 03:30:35;;;;;;;0.40;0.40;;;7.10;99.90;;;;;;5070983;28;20177;-58
2024/02/20 03:33:00;;;;;;;0.50;0.50;;;7.10;99.90;;;;;;5070980;28;20487;-58
2024/02/20 03:35:26;;;;;;;0.40;0.40;;;7.20;99.90;;;;;;5070993;28;20172;-58
2024/02/20 03:37:52;;;;;;;1.60;0.63;;;7.10;99.90;;;;;;5069370;28;20547;-58
2024/02/20 03:40:19;;;;;;;0.40;0.40;;;6.90;99.90;;;;;;5070638;28;20205;-58
2024/02/20 03:42:45;;;;;;;0.50;0.40;;;6.80;99.90;;;;;;5070745;28;20717;-58
2024/02/20 03:45:11;;;;;;;0.40;0.40;;;6.90;99.90;;;;;;5070946;28;20181;-57
2024/02/20 03:47:36;;;;;;;0.40;0.40;;;6.90;99.90;;;;;;5070613;28;20618;-58
2024/02/20 03:50:04;;;;;;;0.53;0.43;;;6.80;99.90;;;;;;5070701;28;20185;-58
2024/02/20 03:52:30;;;;;;;0.40;0.40;;;6.80;99.90;;;;;;5070756;28;20205;-57
2024/02/20 03:54:55;;;;;;;0.40;0.40;;;6.90;99.90;;;;;;5070637;28;20598;-58
2024/02/20 03:57:21;;;;;;;1.43;0.80;;;6.90;99.90;;;;;;5070646;28;20177;-58
2024/02/20 03:59:47;;;;;;;0.60;0.43;;;6.80;99.90;;;;;;5070715;28;20232;-58
2024/02/20 04:02:13;;;;;;;0.50;0.50;;;6.80;99.90;;;;;;5070608;28;20522;-58
2024/02/20 04:04:38;;;;;;;0.50;0.50;;;6.70;99.90;;;;;;5070725;28;20184;-58
2024/02/20 04:07:04;;;;;;;1.13;0.53;;;6.60;99.90;;;;;;5071670;28;20463;-56
2024/02/20 04:09:30;;;;;;;0.40;0.40;;;6.60;99.90;;;;;;5074557;28;20195;-57
2024/02/20 04:11:56;;;;;;;0.57;0.57;;;6.40;99.90;;;;;;5074311;28;20177;-57
2024/02/20 04:14:22;;;;;;;0.50;0.50;;;6.40;99.90;;;;;;5074100;28;20241;-58
2024/02/20 04:16:47;;;;;;;0.50;0.50;;;6.30;99.90;;;;;;5073828;28;20421;-58
2024/02/20 04:19:13;;;;;;;3.03;0.60;;;6.30;99.90;;;;;;5074038;28;20193;-57
2024/02/20 04:21:38;;;;;;;0.70;0.50;;;6.30;99.90;;;;;;5073812;28;20192;-58
2024/02/20 04:24:06;;;;;;;0.50;0.50;;;6.30;99.90;;;;;;5074272;28;20545;-57
2024/02/20 04:26:32;;;;;;;0.63;0.63;;;6.30;99.90;;;;;;5073864;28;20171;-58
2024/02/20 04:28:58;;;;;;;0.97;0.90;;;6.40;99.90;;;;;;5073820;28;20193;-58
2024/02/20 04:31:23;;;;;;;0.70;0.70;;;6.30;99.90;;;;;;5073965;28;20179;-57
2024/02/20 04:33:49;;;;;;;0.60;0.60;;;6.30;99.90;;;;;;5073788;28;20167;-58
2024/02/20 04:36:15;;;;;;;1.10;1.03;;;6.20;99.90;;;;;;5073702;28;20177;-58
2024/02/20 04:38:40;;;;;;;0.77;0.70;;;6.20;99.90;;;;;;5073149;28;20214;-58
2024/02/20 04:41:07;;;;;;;1.30;1.20;;;6.10;99.90;;;;;;5073576;28;20527;-57
2024/02/20 04:43:34;;;;;;;1.67;0.98;;;6.20;99.90;;;;;;5073735;28;20171;-58
2024/02/20 04:45:59;;;;;;;2.13;0.70;;;6.20;99.90;;;;;;5073480;28;20176;-55
2024/02/20 04:48:25;;;;;;;1.27;1.17;;;6.30;99.90;;;;;;5073157;28;20173;-56
2024/02/20 04:50:53;;;;;;;1.20;1.10;;;6.30;99.90;;;;;;5073327;28;20205;-57
2024/02/20 04:53:19;;;;;;;4.68;2.63;;;6.10;99.90;;;;;;5073242;28;20174;-55
2024/02/20 04:55:44;;;;;;;1.30;0.93;;;6.00;99.90;;;;;;5073318;28;20171;-58
2024/02/20 04:58:10;;;;;;;1.70;1.60;;;6.00;99.90;;;;;;5072922;28;20248;-58
2024/02/20 05:00:35;;;;;;;2.67;1.60;;;5.90;99.90;;;;;;5073156;28;20180;-57
2024/02/20 05:03:02;;;;;;;1.00;1.00;;;5.90;99.90;;;;;;5073222;28;20252;-58
2024/02/20 05:05:29;;;;;;;1.40;1.30;;;5.90;99.90;;;;;;5073570;28;20179;-56
2024/02/20 05:07:55;;;;;;;3.47;1.70;;;5.80;99.90;;;;;;5072456;28;20188;-58
2024/02/20 05:10:21;;;;;;;1.40;1.30;;;5.80;99.90;;;;;;5072931;28;20190;-58
2024/02/20 05:12:47;;;;;;;1.55;1.42;;;5.90;99.90;;;;;;5072959;28;20520;-58
2024/02/20 05:15:12;;;;;;;3.03;1.50;;;5.80;99.90;;;;;;5072533;28;20307;-58
2024/02/20 05:17:38;;;;;;;3.63;1.87;;;5.70;99.90;;;;;;5072175;28;20178;-58
2024/02/20 05:20:05;;;;;;;1.63;1.50;;;5.60;99.90;;;;;;5072923;28;20197;-56
2024/02/20 05:22:31;;;;;;;1.85;0.90;;;5.60;99.90;;;;;;5072749;28;20253;-58
2024/02/20 05:24:57;;;;;;;5.80;1.20;;;5.50;99.90;;;;;;5072731;28;20260;-56
2024/02/20 05:27:23;;;;;;;1.60;1.00;;;5.40;99.90;;;;;;5072426;28;20169;-57
2024/02/20 05:29:48;;;;;;;1.25;1.10;;;5.20;99.90;;;;;;5072485;28;20189;-58
2024/02/20 05:32:14;;;;;;;1.67;1.17;;;5.10;99.90;;;;;;5072561;28;20181;-58
2024/02/20 05:34:42;;;;;;;1.77;1.47;;;5.10;99.90;;;;;;5072309;28;20224;-55
2024/02/20 05:37:08;;;;;;;2.88;1.38;;;4.80;99.90;;;;;;5072064;28;20174;-58
2024/02/20 05:39:34;;;;;;;1.67;1.57;;;4.90;99.90;;;;;;5072393;28;20209;-56
2024/02/20 05:41:59;;;;;;;1.67;0.93;;;5.00;99.90;;;;;;5072332;28;20286;-58
2024/02/20 05:44:25;;;;;;;1.10;0.90;;;5.00;99.90;;;;;;5072170;28;20173;-58
2024/02/20 05:46:51;;;;;;;1.20;1.10;;;5.00;99.90;;;;;;5072277;28;20286;-57
2024/02/20 05:49:16;;;;;;;10.33;1.97;;;5.00;99.90;;;;;;5071684;28;20194;-61
2024/02/20 05:51:42;;;;;;;1.80;1.13;;;4.70;99.90;;;;;;5071709;28;20466;-59
2024/02/20 05:54:08;;;;;;;1.63;1.37;;;4.70;99.90;;;;;;5073097;28;20173;-60
2024/02/20 05:56:35;;;;;;;1.70;1.20;;;4.60;99.90;;;;;;5072850;28;20170;-61
2024/02/20 05:59:01;;;;;;;2.78;1.25;;;4.60;99.90;;;;;;5072218;28;20591;-60
2024/02/20 06:01:26;;;;;;;2.17;1.50;;;4.40;99.90;;;;;;5072637;28;20197;-60
2024/02/20 06:03:52;;;;;;;4.13;2.87;;;4.50;99.90;;;;;;5072726;28;20215;-61
2024/02/20 06:06:17;;;;;;;3.43;1.43;;;4.40;99.90;;;;;;5072885;28;20556;-61
2024/02/20 06:08:44;;;;;;;2.30;1.53;;;4.40;99.90;;;;;;5072372;28;20574;-61
2024/02/20 06:11:14;;;;;;;4.53;1.70;;;4.60;99.90;;;;;;5072606;28;20169;-60
2024/02/20 06:13:41;;;;;;;2.33;1.50;;;4.50;99.90;;;;;;5072118;28;20185;-60
2024/02/20 06:16:07;;;;;;;2.03;1.27;;;4.50;99.90;;;;;;5072142;28;20235;-60
2024/02/20 06:18:32;;;;;;;5.40;1.57;;;4.30;99.90;;;;;;5071434;28;20198;-60
2024/02/20 06:20:58;;;;;;;5.50;0.97;;;4.10;99.90;;;;;;5071622;28;20198;-60
2024/02/20 06:23:24;;;;;;;1.50;1.10;;;4.10;99.90;;;;;;5072022;28;20465;-61
2024/02/20 06:25:49;;;;;;;1.73;1.30;;;4.20;99.90;;;;;;5072044;28;20240;-61
2024/02/20 06:28:16;;;;;;;4.33;2.40;;;4.30;99.90;;;;;;5071933;28;20170;-61
2024/02/20 06:30:42;;;;;;;1.35;1.25;;;4.30;99.90;;;;;;5071090;28;20551;-61
2024/02/20 06:33:08;;;;;;;2.50;1.50;;;4.20;99.90;;;;;;5071830;28;20180;-60
2024/02/20 06:35:34;;;;;;;4.77;1.00;;;4.30;99.90;;;;;;5071680;28;20180;-60
2024/02/20 06:37:59;;;;;;;3.43;2.10;;;4.30;99.90;;;;;;5071137;28;20177;-60
2024/02/20 06:40:25;;;;;;;17.67;6.40;;;4.20;99.90;;;;;;5071842;28;20196;-59
2024/02/20 06:42:51;;;;;;;28.10;6.67;;;4.20;99.90;;;;;;5072042;28;20201;-60
2024/02/20 06:45:16;;;;;;;17.17;4.33;;;4.10;99.90;;;;;;5071712;28;20681;-59
2024/02/20 06:47:45;;;;;;;29.17;5.83;;;4.00;99.90;;;;;;5071532;28;20540;-59
2024/02/20 06:50:12;;;;;;;23.88;3.38;;;4.10;99.90;;;;;;5071293;28;20273;-60
2024/02/20 06:52:40;;;;;;;2.05;1.95;;;4.20;99.90;;;;;;5071439;28;20181;-60
2024/02/20 06:55:07;;;;;;;3.75;2.08;;;4.30;99.90;;;;;;5070501;28;20185;-60
2024/02/20 06:57:35;;;;;;;12.55;5.03;;;4.40;99.90;;;;;;5071854;28;20231;-58
2024/02/20 07:00:01;;;;;;;21.98;5.47;;;4.50;99.90;;;;;;5071912;28;20197;-58
2024/02/20 07:02:27;;;;;;;20.25;4.78;;;4.50;99.90;;;;;;5072008;28;20279;-59
2024/02/20 07:04:54;;;;;;;13.03;3.43;;;4.50;99.90;;;;;;5071828;28;20261;-59
2024/02/20 07:07:20;;;;;;;6.85;2.90;;;4.60;99.90;;;;;;5071344;28;20252;-59
2024/02/20 07:09:46;;;;;;;3.40;1.75;;;4.80;99.90;;;;;;5071737;28;20208;-58
2024/02/20 07:12:12;;;;;;;9.03;4.07;;;4.90;99.90;;;;;;5071639;28;20165;-59
2024/02/20 07:14:38;;;;;;;5.63;1.50;;;5.10;99.90;;;;;;5071222;28;20411;-59
2024/02/20 07:17:04;;;;;;;8.07;2.50;;;5.20;99.90;;;;;;5070958;28;20560;-60
2024/02/20 07:19:30;;;;;;;6.10;3.87;;;5.30;99.90;;;;;;5070970;28;20275;-59
2024/02/20 07:21:56;;;;;;;78.73;14.27;;;5.30;99.90;;;;;;5071216;28;20230;-61
2024/02/20 07:24:22;;;;;;;55.40;10.23;;;5.30;99.90;;;;;;5071141;28;20416;-60
2024/02/20 07:26:47;;;;;;;27.63;6.90;;;5.30;99.90;;;;;;5070734;28;20171;-60
2024/02/20 07:29:18;;;;;;;32.90;7.80;;;5.30;99.90;;;;;;5071238;28;20217;-60
2024/02/20 07:31:44;;;;;;;11.77;3.97;;;5.30;99.90;;;;;;5071348;28;20178;-60
2024/02/20 07:34:10;;;;;;;7.15;3.58;;;5.50;99.90;;;;;;5071194;28;20185;-60
2024/02/20 07:36:36;;;;;;;5.00;2.60;;;5.50;99.90;;;;;;5071256;28;20842;-59
2024/02/20 07:39:02;;;;;;;3.43;1.47;;;5.60;99.90;;;;;;5070808;28;20217;-60
2024/02/20 07:41:28;;;;;;;2.35;1.17;;;5.80;99.90;;;;;;5072877;28;20220;-60
2024/02/20 07:43:53;;;;;;;3.37;1.60;;;6.20;99.90;;;;;;5074659;28;20180;-60
2024/02/20 07:46:19;;;;;;;4.23;2.03;;;6.60;99.90;;;;;;5074587;28;20197;-60
2024/02/20 07:48:46;;;;;;;4.30;2.87;;;7.90;99.90;;;;;;5074371;28;20701;-60
2024/02/20 07:51:11;;;;;;;2.47;1.83;;;9.30;98.20;;;;;;5074546;28;20227;-60
2024/02/20 07:53:37;;;;;;;2.50;1.40;;;10.50;94.70;;;;;;5074605;28;20185;-60
2024/02/20 07:56:08;;;;;;;1.53;1.40;;;11.30;93.90;;;;;;5074423;28;20220;-60
2024/02/20 07:58:38;;;;;;;2.63;2.43;;;12.20;92.40;;;;;;5074032;28;20225;-60
2024/02/20 08:01:11;;;;;;;1.90;1.00;;;13.40;89.00;;;;;;5074386;28;20459;-60
2024/02/20 08:03:37;;;;;;;2.27;1.47;;;14.20;86.20;;;;;;5074547;28;20427;-61
2024/02/20 08:06:03;;;;;;;1.73;1.13;;;15.90;83.20;;;;;;5074282;28;20452;-60
2024/02/20 08:08:29;;;;;;;2.30;1.97;;;17.70;77.10;;;;;;5073907;28;21018;-61
2024/02/20 08:10:54;;;;;;;3.00;2.80;;;19.50;70.80;;;;;;5074067;28;20161;-60
2024/02/20 08:13:22;;;;;;;3.97;2.97;;;20.60;61.30;;;;;;5074134;28;20432;-61
2024/02/20 08:15:48;;;;;;;4.90;3.10;;;20.90;58.10;;;;;;5074161;28;20659;-61
2024/02/20 08:18:14;;;;;;;1.50;1.23;;;20.50;57.90;;;;;;5073809;28;20374;-61
2024/02/20 08:20:39;;;;;;;1.20;1.10;;;19.70;57.50;;;;;;5072356;28;20174;-61
2024/02/20 08:23:05;;;;;;;2.00;1.63;;;18.50;57.80;;;;;;5062439;28;20209;-61
2024/02/20 08:25:30;;;;;;;1.90;1.10;;;17.90;59.30;;;;;;5062206;28;21026;-61
2024/02/20 08:27:56;;;;;;;4.57;2.00;;;17.20;60.00;;;;;;5062001;28;20168;-61
2024/02/20 08:30:23;;;;;;;3.70;2.27;;;16.30;61.70;;;;;;5062403;28;20267;-60
2024/02/20 08:32:49;;;;;;;2.00;1.80;;;15.50;64.40;;;;;;5062212;28;20175;-61
2024/02/20 08:35:15;;;;;;;1.57;1.30;;;14.90;66.50;;;;;;5062256;28;20416;-60
2024/02/20 08:37:41;;;;;;;1.43;1.30;;;14.00;68.10;;;;;;5062053;28;20412;-60
2024/02/20 08:40:07;;;;;;;5.73;1.97;;;13.30;69.80;;;;;;5062018;28;20841;-60
2024/02/20 08:42:32;;;;;;;3.03;2.00;;;12.80;71.10;;;;;;5062051;28;20258;-60
2024/02/20 08:44:58;;;;;;;3.43;1.73;;;12.50;72.50;;;;;;5061895;28;20415;-60
2024/02/20 08:47:24;;;;;;;2.67;1.20;;;12.50;74.80;;;;;;5061843;28;20175;-59
2024/02/20 08:49:50;;;;;;;4.03;2.40;;;12.60;74.40;;;;;;5062147;28;20196;-60
2024/02/20 08:52:16;;;;;;;2.73;1.23;;;12.60;72.80;;;;;;5061412;28;20836;-60
2024/02/20 08:54:42;;;;;;;1.40;1.20;;;12.50;73.10;;;;;;5062191;28;20446;-60
2024/02/20 08:57:08;;;;;;;2.40;1.30;;;12.60;73.60;;;;;;5061949;28;20518;-60
2024/02/20 08:59:33;;;;;;;3.00;1.70;;;12.90;72.30;;;;;;5061835;28;20193;-60
2024/02/20 09:02:00;;;;;;;1.40;0.93;;;13.00;72.10;;;;;;5061895;28;20232;-60
2024/02/20 09:04:27;;;;;;;4.53;2.00;;;13.20;73.40;;;;;;5062017;28;20169;-60
2024/02/20 09:06:53;;;;;;;4.53;1.47;;;13.50;73.10;;;;;;5061363;28;20408;-60
2024/02/20 09:09:22;;;;;;;1.83;1.70;;;13.70;70.90;;;;;;5061405;28;21106;-61
2024/02/20 09:11:51;;;;;;;1.33;0.60;;;14.00;71.10;;;;;;5061684;28;20409;-60
2024/02/20 09:14:18;;;;;;;2.57;1.07;;;14.60;70.10;;;;;;5061744;28;20419;-61
2024/02/20 09:16:45;;;;;;;0.60;0.60;;;15.20;69.90;;;;;;5061457;28;20426;-61
2024/02/20 09:19:10;;;;;;;3.37;1.40;;;15.60;67.40;;;;;;5061560;28;21263;-60
2024/02/20 09:21:37;;;;;;;3.60;1.27;;;15.50;65.60;;;;;;5061620;28;20454;-61
2024/02/20 09:24:02;;;;;;;2.90;1.87;;;15.40;67.00;;;;;;5061866;28;20925;-60
2024/02/20 09:26:30;;;;;;;3.83;1.70;;;14.90;63.00;;;;;;5061331;28;20482;-60
2024/02/20 09:28:55;;;;;;;3.83;1.50;;;13.90;62.50;;;;;;5061124;28;20863;-60
2024/02/20 09:31:21;;;;;;;4.13;1.23;;;13.50;64.10;;;;;;5060626;28;20514;-60
2024/02/20 09:33:46;;;;;;;3.77;1.20;;;12.90;64.00;;;;;;5060855;28;20191;-60
2024/02/20 09:36:12;;;;;;;2.17;1.57;;;12.40;64.70;;;;;;5060548;28;20249;-60
2024/02/20 09:38:38;;;;;;;5.30;1.93;;;12.30;66.60;;;;;;5060154;28;20220;-60
2024/02/20 09:41:04;;;;;;;4.13;1.23;;;12.10;67.10;;;;;;5060968;28;20201;-60
2024/02/20 09:43:31;;;;;;;8.33;1.70;;;12.00;67.40;;;;;;5060479;28;20175;-60
2024/02/20 09:46:02;;;;;;;3.60;1.30;;;12.00;68.10;;;;;;5061012;28;20423;-60
2024/02/20 09:48:30;;;;;;;3.60;1.20;;;12.00;69.60;;;;;;5060773;28;20415;-60
2024/02/20 09:51:00;;;;;;;6.43;2.00;;;11.90;67.20;;;;;;5060544;28;21049;-60
2024/02/20 09:53:26;;;;;;;2.27;1.30;;;11.70;68.20;;;;;;5060840;28;20930;-60
2024/02/20 09:55:55;;;;;;;4.17;2.23;;;11.70;72.30;;;;;;5060763;28;20550;-60
2024/02/20 09:58:21;;;;;;;2.60;1.80;;;11.50;69.70;;;;;;5060526;28;20443;-60
2024/02/20 10:00:47;;;;;;;1.67;0.93;;;11.70;71.70;;;;;;5060807;28;20745;-60
2024/02/20 10:03:13;;;;;;;2.00;1.63;;;11.80;68.40;;;;;;5060389;28;20411;-60
2024/02/20 10:05:46;;;;;;;1.97;1.20;;;11.80;70.00;;;;;;5059563;28;20179;-60
2024/02/20 10:08:11;;;;;;;4.43;2.10;;;11.90;69.00;;;;;;5060340;28;20580;-60
2024/02/20 10:10:38;;;;;;;4.50;1.00;;;12.60;69.70;;;;;;5060697;28;20407;-61
2024/02/20 10:13:04;;;;;;;4.83;1.27;;;14.00;67.10;;;;;;5060567;28;20169;-61
2024/02/20 10:15:30;;;;;;;2.20;1.00;;;14.70;62.80;;;;;;5059993;28;20983;-59
2024/02/20 10:18:02;;;;;;;3.50;1.40;;;15.80;58.20;;;;;;5059289;28;20410;-61
2024/02/20 10:20:29;;;;;;;1.97;1.07;;;16.00;56.80;;;;;;5060419;28;20511;-61
2024/02/20 10:23:07;;;;;;;2.27;1.37;;;16.00;56.30;;;;;;5060466;28;20464;-60
2024/02/20 10:25:33;;;;;;;4.50;1.90;;;15.30;55.40;;;;;;5060348;28;20411;-61
2024/02/20 10:27:59;;;;;;;3.80;1.40;;;14.80;56.30;;;;;;5060008;28;20411;-60
2024/02/20 10:30:25;;;;;;;1.40;1.30;;;14.40;57.80;;;;;;5059872;28;20953;-60
2024/02/20 10:32:51;;;;;;;2.40;0.90;;;14.00;57.50;;;;;;5060141;28;20419;-60
2024/02/20 10:35:17;;;;;;;3.20;1.13;;;13.60;58.60;;;;;;5060238;28;20420;-60
2024/02/20 10:37:42;;;;;;;3.63;1.90;;;13.00;58.50;;;;;;5060191;28;20173;-60
2024/02/20 10:40:12;;;;;;;4.30;1.33;;;12.70;62.50;;;;;;5059880;28;20266;-60
2024/02/20 10:42:39;;;;;;;4.00;1.20;;;12.60;63.90;;;;;;5060110;28;20212;-60
2024/02/20 10:45:08;;;;;;;2.57;1.17;;;12.60;61.70;;;;;;5059973;28;21218;-60
2024/02/20 10:47:47;;;;;;;3.60;1.07;;;12.40;61.60;;;;;;5059511;28;20408;-60
2024/02/20 10:50:14;;;;;;;3.90;1.73;;;12.30;63.00;;;;;;5060001;28;20457;-60
2024/02/20 10:52:42;;;;;;;2.07;1.87;;;12.10;62.50;;;;;;5059896;28;20408;-60
2024/02/20 10:55:10;;;;;;;1.70;1.13;;;11.90;61.70;;;;;;5060117;28;20412;-60
2024/02/20 10:57:38;;;;;;;3.03;1.00;;;11.80;65.20;;;;;;5059621;28;20408;-60
2024/02/20 11:00:09;;;;;;;3.50;1.70;;;11.60;66.10;;;;;;5057266;28;20463;-59
2024/02/20 11:02:40;;;;;;;3.90;1.70;;;11.40;65.00;;;;;;5060056;28;20467;-60
2024/02/20 11:05:09;;;;;;;3.10;1.47;;;11.50;67.30;;;;;;5060083;28;20987;-60
2024/02/20 11:07:35;;;;;;;2.57;1.67;;;11.60;67.30;;;;;;5059464;28;20415;-60
2024/02/20 11:10:08;;;;;;;2.10;1.10;;;11.40;65.90;;;;;;5059785;28;20459;-60
2024/02/20 11:12:34;;;;;;;4.90;2.20;;;11.20;66.50;;;;;;5059773;28;20411;-60
2024/02/20 11:15:09;;;;;;;3.13;1.20;;;11.00;68.00;;;;;;5059785;28;20415;-60
2024/02/20 11:17:39;;;;;;;2.30;1.37;;;11.00;69.10;;;;;;5043332;28;20272;-60
2024/02/20 11:20:07;;;;;;;2.93;0.90;;;10.90;70.00;;;;;;5043896;28;20428;-60
2024/02/20 11:22:34;;;;;;;2.20;1.40;;;11.00;71.20;;;;;;5043898;28;20570;-60
2024/02/20 11:25:06;;;;;;;1.07;0.97;;;11.20;70.50;;;;;;5043579;28;20918;-60
2024/02/20 11:27:43;;;;;;;1.47;1.07;;;11.30;70.00;;;;;;5043661;28;20404;-60
2024/02/20 11:30:20;;;;;;;4.07;1.50;;;11.30;69.30;;;;;;5043673;28;20420;-60
2024/02/20 11:32:48;;;;;;;1.67;1.43;;;11.30;67.10;;;;;;5047961;28;20498;-60
2024/02/20 11:35:33;;;;;;;3.13;1.50;;;11.40;67.10;;;;;;5063776;28;20447;-60
2024/02/20 11:38:01;;;;;;;3.50;2.33;;;11.50;65.90;;;;;;5063342;28;20511;-60
2024/02/20 11:40:34;;;;;;;4.80;1.70;;;11.30;66.70;;;;;;5063295;28;20450;-60
2024/02/20 11:43:01;;;;;;;1.60;0.87;;;11.10;66.80;;;;;;5045652;28;20455;-60
2024/02/20 11:45:31;;;;;;;3.13;1.07;;;10.80;67.00;;;;;;5063188;28;20454;-60
2024/02/20 11:48:11;;;;;;;4.87;1.50;;;10.80;68.70;;;;;;5063333;28;21225;-60
2024/02/20 11:50:38;;;;;;;2.50;1.03;;;10.80;67.90;;;;;;5063206;28;20414;-60
2024/02/20 11:53:09;;;;;;;7.13;3.00;;;10.90;69.20;;;;;;5063292;28;20415;-60
2024/02/20 11:55:35;;;;;;;1.80;1.70;;;10.90;68.60;;;;;;5063419;28;20407;-60
2024/02/20 11:58:04;;;;;;;3.03;1.87;;;11.00;68.60;;;;;;5062822;28;20490;-60
2024/02/20 12:00:32;;;;;;;6.10;1.80;;;11.10;71.50;;;;;;5044281;28;20477;-60
2024/02/20 12:03:02;;;;;;;1.20;1.10;;;11.00;71.50;;;;;;5043145;28;21099;-60
2024/02/20 12:05:28;;;;;;;1.37;1.00;;;10.90;70.30;;;;;;5042797;28;21266;-60
2024/02/20 12:07:56;;;;;;;4.77;2.00;;;11.00;69.20;;;;;;5042462;28;20412;-58
2024/02/20 12:10:24;;;;;;;2.10;0.87;;;11.00;64.40;;;;;;5042712;28;20437;-60
2024/02/20 12:12:51;;;;;;;6.00;1.83;;;11.20;63.40;;;;;;5042442;28;20922;-59
2024/02/20 12:15:17;;;;;;;1.40;1.30;;;11.20;65.60;;;;;;5042701;28;20424;-60
2024/02/20 12:17:44;;;;;;;2.20;1.43;;;11.20;66.60;;;;;;5042656;28;21012;-60
2024/02/20 12:20:11;;;;;;;1.70;1.30;;;11.30;65.00;;;;;;5042770;28;20510;-60
2024/02/20 12:22:44;;;;;;;3.77;1.20;;;11.50;65.50;;;;;;5042450;28;20452;-60
2024/02/20 12:25:17;;;;;;;2.00;1.17;;;11.50;68.10;;;;;;5042285;28;20934;-60
2024/02/20 12:27:43;;;;;;;3.00;1.50;;;11.40;69.80;;;;;;5041329;28;20405;-60
2024/02/20 12:30:10;;;;;;;2.10;0.80;;;11.40;69.10;;;;;;5042652;28;20468;-60
2024/02/20 12:32:37;;;;;;;4.10;1.40;;;11.30;69.20;;;;;;5042712;28;20417;-60
2024/02/20 12:35:03;;;;;;;6.07;2.37;;;11.20;68.90;;;;;;5042626;28;20421;-60
2024/02/20 12:37:29;;;;;;;2.60;1.10;;;11.00;69.00;;;;;;5042398;28;20420;-59
2024/02/20 12:39:54;;;;;;;1.90;1.07;;;10.90;70.60;;;;;;5042045;28;20452;-60
2024/02/20 12:42:21;;;;;;;8.40;1.63;;;10.80;69.70;;;;;;5042153;28;20213;-59
2024/02/20 12:44:47;;;;;;;4.25;1.58;;;10.80;68.10;;;;;;5042353;28;20423;-60
2024/02/20 12:47:16;;;;;;;8.35;2.00;;;10.50;68.20;;;;;;5042231;28;20170;-60
2024/02/20 12:49:41;;;;;;;3.77;1.57;;;10.60;70.60;;;;;;5042205;28;20285;-60